To NAV CANADA Home Page Login to a new session Search on AWWS site Feedback and Comments Disclaimer Vers la page française équivalente Tips FAQ What's new on the site To the Forecasts and Observations / NOTAM section To "File a Flight Plan" website Publications and other links Update of the User's profile FIC Telephone Numbers My Weather Data Folder Route Weather Data Regional Weather Data Local Weather Data To the Forecasts and Observations / NOTAM section
Request Generated 05/24/2015 at 14:55:07 UTC . Weather information available at that time is displayed.

METAR/TAF

HALIFAX/STANFIELD INTL/NS    

METAR CYHZ 241400Z 21012G18KT 15SM OVC085 10/05 A3008 RMK AC8 SLP191=
METAR CYHZ 241300Z 21015KT 15SM BKN080 OVC120 10/04 A3010 RMK AC5AC3
SLP197=
METAR CYHZ 241200Z 19013KT 15SM BKN080 OVC240 10/03 A3011 RMK AC5CI3
SLP201=

TAF CYHZ 241438Z 2415/2512 21012G22KT P6SM BKN080
FM241800 22015G25KT P6SM SCT050
BECMG 2422/2424 22007KT
FM250300 23005KT P6SM SKC
RMK NXT FCST BY 241800Z=
Your time UTC time
Weather data provided by Environment Canada and NAV CANADA